createdAt,value
2018-12-05T00:00:42.323Z,11.34
2018-12-05T00:01:42.331Z,11.32
2018-12-05T00:02:42.353Z,11.36
2018-12-05T00:03:42.370Z,11.47
2018-12-05T00:04:42.386Z,11.64
2018-12-05T00:05:42.395Z,11.68
2018-12-05T00:06:42.416Z,11.53
2018-12-05T00:07:42.436Z,11.34
2018-12-05T00:08:42.450Z,11.36
2018-12-05T00:09:42.462Z,11.32
2018-12-05T00:10:42.473Z,11.28
2018-12-05T00:11:42.492Z,11.38
2018-12-05T00:12:42.566Z,11.03
2018-12-05T00:13:42.519Z,11.10
2018-12-05T00:14:42.539Z,11.35
2018-12-05T00:15:42.553Z,11.47
2018-12-05T00:16:42.568Z,11.38
2018-12-05T00:17:42.593Z,10.94
2018-12-05T00:18:42.601Z,11.13
2018-12-05T00:19:42.630Z,10.59
2018-12-05T00:20:42.627Z,10.43
2018-12-05T00:21:42.649Z,10.78
2018-12-05T00:22:42.666Z,10.94
2018-12-05T00:23:42.695Z,11.21
2018-12-05T00:24:42.703Z,11.27
2018-12-05T00:25:42.706Z,11.44
2018-12-05T00:26:42.727Z,11.24
2018-12-05T00:27:42.785Z,11.36
2018-12-05T00:28:42.754Z,11.24
2018-12-05T00:29:42.863Z,11.28
2018-12-05T00:30:42.788Z,11.17
2018-12-05T00:31:42.802Z,11.27
2018-12-05T00:32:42.823Z,11.28
2018-12-05T00:33:42.833Z,11.35
2018-12-05T00:34:42.898Z,11.44
2018-12-05T00:36:42.889Z,11.27
2018-12-05T00:37:42.931Z,11.28
2018-12-05T00:38:42.912Z,11.34
2018-12-05T00:39:42.925Z,11.25
2018-12-05T00:40:42.989Z,11.34
2018-12-05T00:41:42.965Z,11.36
2018-12-05T00:42:42.980Z,11.46
2018-12-05T00:43:42.985Z,11.21
2018-12-05T00:44:43.019Z,11.32
2018-12-05T00:45:43.028Z,11.36
2018-12-05T00:46:43.044Z,11.20
2018-12-05T00:47:43.055Z,10.73
2018-12-05T00:48:43.083Z,10.91
2018-12-05T00:49:43.078Z,11.20
2018-12-05T00:50:43.114Z,11.34
2018-12-05T00:51:43.113Z,11.31
2018-12-05T00:52:43.124Z,11.03
2018-12-05T00:53:43.144Z,11.11
2018-12-05T00:54:43.157Z,11.03
2018-12-05T00:55:43.171Z,11.10
2018-12-05T00:56:43.195Z,11.24
2018-12-05T00:57:43.293Z,11.21
2018-12-05T00:58:43.220Z,11.25
2018-12-05T00:59:43.243Z,11.32
2018-12-05T01:00:43.249Z,11.19
2018-12-05T01:01:43.275Z,11.13
2018-12-05T01:02:43.287Z,11.14
2018-12-05T01:03:43.298Z,11.24
2018-12-05T01:04:43.313Z,11.34
2018-12-05T01:05:43.323Z,11.16
2018-12-05T01:06:43.352Z,11.21
2018-12-05T01:08:43.374Z,11.11
2018-12-05T01:10:43.429Z,11.14
2018-12-05T01:11:43.421Z,11.19
2018-12-05T01:12:43.438Z,11.20
2018-12-05T01:13:43.449Z,11.16
2018-12-05T01:14:43.473Z,11.28
2018-12-05T01:15:43.503Z,11.11
2018-12-05T01:16:43.497Z,10.66
2018-12-05T01:17:43.521Z,10.83
2018-12-05T01:18:43.529Z,11.01
2018-12-05T01:19:43.549Z,10.96
2018-12-05T01:20:43.557Z,10.73
2018-12-05T01:21:43.580Z,10.84
2018-12-05T01:22:43.593Z,10.76
2018-12-05T01:23:43.613Z,10.73
2018-12-05T01:24:43.620Z,10.84
2018-12-05T01:25:43.677Z,10.36
2018-12-05T01:26:43.651Z,10.60
2018-12-05T01:27:43.673Z,10.86
2018-12-05T01:28:43.686Z,11.07
2018-12-05T01:29:43.703Z,11.07
2018-12-05T01:30:43.717Z,10.98
2018-12-05T01:31:43.725Z,11.09
2018-12-05T01:32:43.743Z,11.03
2018-12-05T01:33:43.763Z,11.03
2018-12-05T01:34:43.780Z,10.88
2018-12-05T01:35:43.801Z,10.98
2018-12-05T01:36:43.802Z,10.84
2018-12-05T01:37:43.841Z,10.32
2018-12-05T01:38:43.847Z,10.32
2018-12-05T01:39:43.864Z,10.24
2018-12-05T01:40:43.870Z,10.34
2018-12-05T01:41:43.899Z,10.36
2018-12-05T01:42:43.953Z,10.42
2018-12-05T01:43:43.911Z,10.42
2018-12-05T01:44:43.931Z,10.76
2018-12-05T01:45:43.944Z,10.88
2018-12-05T01:46:43.974Z,10.66
2018-12-05T01:47:43.986Z,10.81
2018-12-05T01:48:43.990Z,10.86
2018-12-05T01:49:44.006Z,10.76
2018-12-05T01:50:44.039Z,10.52
2018-12-05T01:51:44.047Z,10.32
2018-12-05T01:52:44.057Z,10.19
2018-12-05T01:53:44.179Z,10.18
2018-12-05T01:54:44.084Z,10.32
2018-12-05T01:55:44.146Z,9.99
2018-12-05T01:56:44.121Z,9.94
2018-12-05T01:58:44.184Z,10.28
2018-12-05T01:59:44.164Z,10.52
2018-12-05T02:00:44.177Z,10.60
2018-12-05T02:01:44.197Z,10.74
2018-12-05T02:02:44.233Z,10.83
2018-12-05T02:03:44.226Z,10.98
2018-12-05T02:04:44.279Z,10.98
2018-12-05T02:05:44.258Z,10.89
2018-12-05T02:06:44.273Z,11.02
2018-12-05T02:07:44.285Z,10.91
2018-12-05T02:08:44.310Z,10.84
2018-12-05T02:09:44.339Z,10.59
2018-12-05T02:11:44.348Z,10.34
2018-12-05T02:12:44.370Z,10.55
2018-12-05T02:13:44.378Z,10.60
2018-12-05T02:14:44.407Z,10.39
2018-12-05T02:15:44.406Z,10.32
2018-12-05T02:16:44.426Z,10.15
2018-12-05T02:17:44.442Z,10.15
2018-12-05T02:18:44.463Z,10.34
2018-12-05T02:19:44.468Z,10.51
2018-12-05T02:20:44.483Z,10.51
2018-12-05T02:21:44.505Z,10.68
2018-12-05T02:22:44.513Z,10.68
2018-12-05T02:23:44.637Z,10.36
2018-12-05T02:24:44.556Z,9.96
2018-12-05T02:25:44.566Z,10.00
2018-12-05T02:26:44.588Z,10.34
2018-12-05T02:27:44.630Z,10.42
2018-12-05T02:28:44.612Z,10.55
2018-12-05T02:29:44.625Z,10.62
2018-12-05T02:30:44.661Z,10.39
2018-12-05T02:31:44.737Z,10.53
2018-12-05T02:32:44.673Z,10.62
2018-12-05T02:33:44.683Z,10.51
2018-12-05T02:34:44.728Z,10.33
2018-12-05T02:35:44.716Z,10.33
2018-12-05T02:36:44.729Z,10.00
2018-12-05T02:38:44.813Z,10.25
2018-12-05T02:39:44.781Z,10.17
2018-12-05T02:40:44.791Z,9.67
2018-12-05T02:41:44.810Z,9.68
2018-12-05T02:42:44.825Z,9.63
2018-12-05T02:43:44.858Z,9.64
2018-12-05T02:44:44.851Z,9.53
2018-12-05T02:45:44.879Z,9.52
2018-12-05T02:46:44.881Z,9.35
2018-12-05T02:47:44.899Z,9.43
2018-12-05T02:48:44.924Z,9.21
2018-12-05T02:49:44.931Z,9.21
2018-12-05T02:50:44.943Z,9.12
2018-12-05T02:51:45.029Z,8.87
2018-12-05T02:52:44.983Z,8.90
2018-12-05T02:53:44.993Z,9.04
2018-12-05T02:54:45.006Z,9.58
2018-12-05T02:55:45.022Z,9.97
2018-12-05T02:56:45.038Z,10.15
2018-12-05T02:57:45.063Z,10.21
2018-12-05T02:58:45.074Z,10.30
2018-12-05T02:59:45.080Z,10.18
2018-12-05T03:00:45.107Z,10.09
2018-12-05T03:01:45.114Z,10.55
2018-12-05T03:03:45.140Z,9.85
2018-12-05T03:04:45.161Z,9.71
2018-12-05T03:05:45.187Z,9.70
2018-12-05T03:06:45.249Z,10.07
2018-12-05T03:08:45.251Z,10.19
2018-12-05T03:09:45.243Z,10.32
2018-12-05T03:10:45.253Z,10.47
2018-12-05T03:11:45.284Z,10.39
2018-12-05T03:12:45.290Z,10.46
2018-12-05T03:13:45.308Z,10.21
2018-12-05T03:14:45.314Z,9.93
2018-12-05T03:15:45.328Z,9.56
2018-12-05T03:16:45.351Z,9.70
2018-12-05T03:17:45.360Z,9.83
2018-12-05T03:18:45.378Z,9.49
2018-12-05T03:19:45.387Z,9.21
2018-12-05T03:20:45.398Z,9.68
2018-12-05T03:21:45.437Z,10.14
2018-12-05T03:22:45.434Z,10.14
2018-12-05T03:23:45.448Z,10.22
2018-12-05T03:24:45.461Z,10.30
2018-12-05T03:25:45.502Z,10.30
2018-12-05T03:26:45.498Z,10.30
2018-12-05T03:27:45.511Z,10.04
2018-12-05T03:28:45.520Z,10.21
2018-12-05T03:29:45.544Z,10.47
2018-12-05T03:30:45.553Z,10.33
2018-12-05T03:31:45.575Z,10.28
2018-12-05T03:32:45.621Z,10.40
2018-12-05T03:33:45.593Z,10.00
2018-12-05T03:35:45.628Z,9.78
2018-12-05T03:36:45.740Z,9.88
2018-12-05T03:37:45.656Z,10.07
2018-12-05T03:39:45.688Z,10.24
2018-12-05T03:40:45.702Z,10.32
2018-12-05T03:41:45.717Z,10.22
2018-12-05T03:42:45.732Z,10.22
2018-12-05T03:43:45.765Z,9.64
2018-12-05T03:44:45.770Z,9.43
2018-12-05T03:45:45.781Z,9.66
2018-12-05T03:46:45.791Z,9.96
2018-12-05T03:47:45.805Z,10.15
2018-12-05T03:48:45.822Z,10.15
2018-12-05T03:49:45.840Z,10.47
2018-12-05T03:50:45.854Z,10.34
2018-12-05T03:51:45.871Z,9.78
2018-12-05T03:52:45.881Z,9.56
2018-12-05T03:53:45.969Z,9.56
2018-12-05T03:54:45.925Z,9.31
2018-12-05T03:55:45.933Z,9.64
2018-12-05T03:56:45.941Z,9.75
2018-12-05T03:57:45.957Z,9.97
2018-12-05T04:00:46.000Z,10.22
2018-12-05T04:01:46.020Z,10.28
2018-12-05T04:02:46.029Z,10.28
2018-12-05T04:03:46.049Z,10.26
2018-12-05T04:04:46.075Z,10.26
2018-12-05T04:05:46.075Z,10.15
2018-12-05T04:07:46.128Z,10.26
2018-12-05T04:08:46.120Z,10.25
2018-12-05T04:09:46.137Z,10.33
2018-12-05T04:10:46.182Z,10.34
2018-12-05T04:11:46.180Z,10.33
2018-12-05T04:12:46.200Z,10.00
2018-12-05T04:13:46.199Z,9.96
2018-12-05T04:14:46.214Z,9.49
2018-12-05T04:15:46.229Z,9.38
2018-12-05T04:16:46.248Z,9.49
2018-12-05T04:18:46.265Z,10.09
2018-12-05T04:19:46.288Z,10.32
2018-12-05T04:22:46.332Z,9.45
2018-12-05T04:23:46.350Z,9.38
2018-12-05T04:24:46.358Z,9.30
2018-12-05T04:25:46.381Z,9.70
2018-12-05T04:26:46.396Z,10.03
2018-12-05T04:27:46.406Z,10.00
2018-12-05T04:28:46.434Z,10.07
2018-12-05T04:29:46.442Z,10.09
2018-12-05T04:30:46.449Z,10.21
2018-12-05T04:31:46.495Z,10.21
2018-12-05T04:32:46.488Z,9.94
2018-12-05T04:33:46.495Z,9.68
2018-12-05T04:34:46.538Z,9.96
2018-12-05T04:35:46.529Z,10.12
2018-12-05T04:36:46.543Z,10.28
2018-12-05T04:37:46.569Z,10.17
2018-12-05T04:38:46.626Z,10.17
2018-12-05T04:39:46.608Z,9.82
2018-12-05T04:40:46.597Z,9.34
2018-12-05T04:41:46.625Z,9.38
2018-12-05T04:42:46.629Z,9.20
2018-12-05T04:43:46.658Z,9.43
2018-12-05T04:44:46.665Z,9.61
2018-12-05T04:45:46.688Z,9.93
2018-12-05T04:46:46.690Z,9.93
2018-12-05T04:47:46.703Z,10.09
2018-12-05T04:48:46.725Z,9.75
2018-12-05T04:49:46.828Z,9.66
2018-12-05T04:50:46.754Z,9.85
2018-12-05T04:51:46.767Z,9.83
2018-12-05T04:52:46.783Z,9.79
2018-12-05T04:53:46.795Z,9.57
2018-12-05T04:54:46.815Z,9.30
2018-12-05T04:55:46.845Z,9.16
2018-12-05T04:56:46.854Z,9.27
2018-12-05T04:57:46.864Z,9.28
2018-12-05T04:58:46.881Z,9.31
2018-12-05T04:59:46.931Z,9.66
2018-12-05T05:00:46.899Z,9.67
2018-12-05T05:01:46.915Z,9.70
2018-12-05T05:02:46.967Z,9.82
2018-12-05T05:03:46.948Z,9.88
2018-12-05T05:04:46.983Z,9.66
2018-12-05T05:05:46.995Z,9.38
2018-12-05T05:06:47.004Z,9.32
2018-12-05T05:07:47.035Z,9.58
2018-12-05T05:08:47.033Z,9.67
2018-12-05T05:09:47.063Z,9.67
2018-12-05T05:10:47.071Z,9.93
2018-12-05T05:11:47.082Z,10.07
2018-12-05T05:12:47.116Z,9.88
2018-12-05T05:13:47.124Z,9.56
2018-12-05T05:14:47.121Z,9.28
2018-12-05T05:15:47.162Z,9.67
2018-12-05T05:16:47.153Z,9.76
2018-12-05T05:17:47.162Z,9.83
2018-12-05T05:18:47.372Z,10.03
2018-12-05T05:19:47.233Z,9.83
2018-12-05T05:21:47.217Z,10.18
2018-12-05T05:22:47.232Z,10.12
2018-12-05T05:23:47.300Z,10.25
2018-12-05T05:24:47.263Z,9.81
2018-12-05T05:25:47.288Z,9.73
2018-12-05T05:27:47.312Z,10.14
2018-12-05T05:28:47.326Z,9.79
2018-12-05T05:29:47.349Z,9.89
2018-12-05T05:30:47.353Z,9.86
2018-12-05T05:31:47.365Z,9.88
2018-12-05T05:32:47.388Z,9.93
2018-12-05T05:34:47.471Z,10.00
2018-12-05T05:35:47.428Z,9.75
2018-12-05T05:38:47.482Z,9.58
2018-12-05T05:39:47.491Z,9.61
2018-12-05T05:40:47.503Z,9.49
2018-12-05T05:41:47.512Z,9.53
2018-12-05T05:42:47.532Z,9.83
2018-12-05T05:43:47.543Z,9.66
2018-12-05T05:44:47.559Z,9.94
2018-12-05T05:45:47.579Z,9.82
2018-12-05T05:46:47.597Z,9.85
2018-12-05T05:47:47.606Z,9.99
2018-12-05T05:48:47.621Z,10.00
2018-12-05T05:49:47.635Z,10.12
2018-12-05T05:50:47.650Z,10.17
2018-12-05T05:51:47.761Z,10.00
2018-12-05T05:52:47.687Z,9.83
2018-12-05T05:53:47.695Z,9.67
2018-12-05T05:54:47.717Z,9.91
2018-12-05T05:56:47.754Z,9.91
2018-12-05T05:57:47.757Z,10.09
2018-12-05T05:58:47.778Z,10.15
2018-12-05T05:59:47.794Z,10.04
2018-12-05T06:00:47.797Z,10.24
2018-12-05T06:01:47.816Z,10.12
2018-12-05T06:02:47.826Z,10.09
2018-12-05T06:03:47.841Z,9.63
2018-12-05T06:04:47.984Z,9.31
2018-12-05T06:05:47.879Z,9.48
2018-12-05T06:06:47.888Z,9.60
2018-12-05T06:07:47.905Z,9.49
2018-12-05T06:08:47.936Z,9.38
2018-12-05T06:09:47.940Z,9.18
2018-12-05T06:10:47.953Z,9.05
2018-12-05T06:11:47.965Z,9.34
2018-12-05T06:12:47.975Z,9.64
2018-12-05T06:13:47.991Z,9.68
2018-12-05T06:14:48.015Z,9.81
2018-12-05T06:15:48.047Z,9.68
2018-12-05T06:16:48.038Z,9.78
2018-12-05T06:17:48.054Z,9.73
2018-12-05T06:18:48.070Z,9.96
2018-12-05T06:19:48.131Z,10.07
2018-12-05T06:20:48.107Z,10.04
2018-12-05T06:21:48.163Z,9.60
2018-12-05T06:22:48.121Z,9.32
2018-12-05T06:23:48.140Z,9.20
2018-12-05T06:24:48.158Z,9.21
2018-12-05T06:25:48.176Z,9.21
2018-12-05T06:26:48.192Z,9.52
2018-12-05T06:27:48.193Z,9.73
2018-12-05T06:28:48.214Z,9.67
2018-12-05T06:29:48.248Z,9.67
2018-12-05T06:30:48.246Z,9.63
2018-12-05T06:31:48.254Z,9.30
2018-12-05T06:32:48.293Z,8.90
2018-12-05T06:33:48.286Z,8.86
2018-12-05T06:34:48.313Z,8.76
2018-12-05T06:35:48.324Z,8.69
2018-12-05T06:36:48.342Z,8.69
2018-12-05T06:37:48.364Z,8.63
2018-12-05T06:38:48.373Z,8.69
2018-12-05T06:39:48.375Z,8.68
2018-12-05T06:40:48.400Z,8.96
2018-12-05T06:41:48.407Z,9.38
2018-12-05T06:42:48.428Z,9.24
2018-12-05T06:43:48.442Z,9.24
2018-12-05T06:44:48.451Z,9.20
2018-12-05T06:45:48.472Z,9.30
2018-12-05T06:46:48.479Z,9.32
2018-12-05T06:47:48.496Z,8.88
2018-12-05T06:48:48.517Z,8.79
2018-12-05T06:49:48.528Z,8.76
2018-12-05T06:50:48.541Z,8.69
2018-12-05T06:51:48.567Z,8.86
2018-12-05T06:52:48.575Z,9.01
2018-12-05T06:53:48.603Z,9.32
2018-12-05T06:54:48.598Z,9.60
2018-12-05T06:55:48.614Z,9.66
2018-12-05T06:56:48.640Z,9.81
2018-12-05T06:57:48.649Z,9.89
2018-12-05T06:58:48.665Z,9.81
2018-12-05T06:59:48.681Z,9.50
2018-12-05T07:00:48.700Z,9.56
2018-12-05T07:01:48.705Z,9.70
2018-12-05T07:02:48.719Z,9.81
2018-12-05T07:03:48.737Z,9.64
2018-12-05T07:04:48.770Z,9.35
2018-12-05T07:05:48.766Z,9.58
2018-12-05T07:06:48.824Z,9.78
2018-12-05T07:07:48.796Z,9.67
2018-12-05T07:08:48.810Z,9.82
2018-12-05T07:09:48.823Z,9.91
2018-12-05T07:10:48.856Z,10.06
2018-12-05T07:11:48.885Z,10.10
2018-12-05T07:12:48.898Z,10.09
2018-12-05T07:13:48.885Z,9.82
2018-12-05T07:14:48.896Z,9.49
2018-12-05T07:15:48.917Z,9.12
2018-12-05T07:16:48.934Z,9.23
2018-12-05T07:17:48.961Z,9.60
2018-12-05T07:18:48.959Z,9.34
2018-12-05T07:19:48.973Z,8.97
2018-12-05T07:20:48.990Z,8.99
2018-12-05T07:21:49.020Z,9.57
2018-12-05T07:22:49.020Z,9.70
2018-12-05T07:23:49.050Z,9.67
2018-12-05T07:24:49.045Z,9.34
2018-12-05T07:25:49.089Z,9.57
2018-12-05T07:26:49.091Z,9.40
2018-12-05T07:27:49.099Z,9.40
2018-12-05T07:28:49.113Z,9.68
2018-12-05T07:29:49.123Z,9.83
2018-12-05T07:30:49.135Z,9.83
2018-12-05T07:31:49.169Z,9.94
2018-12-05T07:32:49.170Z,10.10
2018-12-05T07:33:49.178Z,10.06
2018-12-05T07:34:49.201Z,10.00
2018-12-05T07:35:49.207Z,9.99
2018-12-05T07:36:49.227Z,10.12
2018-12-05T07:37:49.244Z,9.97
2018-12-05T07:38:49.263Z,9.52
2018-12-05T07:39:49.275Z,9.32
2018-12-05T07:40:49.285Z,9.53
2018-12-05T07:41:49.299Z,9.40
2018-12-05T07:42:49.323Z,9.35
2018-12-05T07:43:49.332Z,9.31
2018-12-05T07:44:49.351Z,9.61
2018-12-05T07:45:49.376Z,9.56
2018-12-05T07:46:49.389Z,9.40
2018-12-05T07:47:49.435Z,9.68
2018-12-05T07:48:49.404Z,9.94
2018-12-05T07:49:49.421Z,9.91
2018-12-05T07:50:49.436Z,9.94
2018-12-05T07:51:49.499Z,9.96
2018-12-05T07:52:49.463Z,9.99
2018-12-05T07:53:49.485Z,10.00
2018-12-05T07:54:49.498Z,9.82
2018-12-05T07:55:49.521Z,9.57
2018-12-05T07:56:49.529Z,9.66
2018-12-05T07:57:49.538Z,9.49
2018-12-05T07:58:49.556Z,9.61
2018-12-05T07:59:49.569Z,9.46
2018-12-05T08:00:49.591Z,9.06
2018-12-05T08:01:49.612Z,9.10
2018-12-05T08:02:49.641Z,9.40
2018-12-05T08:03:49.637Z,9.68
2018-12-05T08:04:49.651Z,9.82
2018-12-05T08:05:49.682Z,9.93
2018-12-05T08:06:49.674Z,9.99
2018-12-05T08:07:49.689Z,9.89
2018-12-05T08:08:49.702Z,9.94
2018-12-05T08:10:49.742Z,10.01
2018-12-05T08:11:49.757Z,10.15
2018-12-05T08:12:49.762Z,10.21
2018-12-05T08:13:49.779Z,9.97
2018-12-05T08:14:49.863Z,9.53
2018-12-05T08:15:49.805Z,9.06
2018-12-05T08:16:49.830Z,9.21
2018-12-05T08:17:49.856Z,9.63
2018-12-05T08:18:49.860Z,9.45
2018-12-05T08:19:49.964Z,9.31
2018-12-05T08:20:49.890Z,9.34
2018-12-05T08:21:49.899Z,9.21
2018-12-05T08:22:50.042Z,9.23
2018-12-05T08:23:49.929Z,9.30
2018-12-05T08:24:49.969Z,9.24
2018-12-05T08:25:49.977Z,9.27
2018-12-05T08:26:49.979Z,9.13
2018-12-05T08:27:49.989Z,9.23
2018-12-05T08:28:50.005Z,9.06
2018-12-05T08:29:50.029Z,9.68
2018-12-05T08:30:50.150Z,9.88
2018-12-05T08:31:50.048Z,9.94
2018-12-05T08:32:50.066Z,9.78
2018-12-05T08:33:50.080Z,9.57
2018-12-05T08:34:50.102Z,9.58
2018-12-05T08:35:50.112Z,9.38
2018-12-05T08:36:50.162Z,9.35
2018-12-05T08:37:50.137Z,9.39
2018-12-05T08:38:50.154Z,9.30
2018-12-05T08:39:50.173Z,9.49
2018-12-05T08:40:50.189Z,9.66
2018-12-05T08:41:50.203Z,9.96
2018-12-05T08:42:50.214Z,9.94
2018-12-05T08:43:50.244Z,9.94
2018-12-05T08:44:50.248Z,9.94
2018-12-05T08:45:50.271Z,9.68
2018-12-05T08:46:50.297Z,9.60
2018-12-05T08:47:50.406Z,9.81
2018-12-05T08:48:50.323Z,9.70
2018-12-05T08:49:50.321Z,9.91
2018-12-05T08:50:50.341Z,10.22
2018-12-05T08:51:50.357Z,10.09
2018-12-05T08:52:50.381Z,9.81
2018-12-05T08:53:50.383Z,9.89
2018-12-05T08:54:50.419Z,9.71
2018-12-05T08:55:50.424Z,9.88
2018-12-05T08:56:50.432Z,10.10
2018-12-05T08:57:50.448Z,10.33
2018-12-05T08:58:50.460Z,9.99
2018-12-05T08:59:50.474Z,10.09
2018-12-05T09:00:50.545Z,10.07
2018-12-05T09:01:50.513Z,10.33
2018-12-05T09:02:50.525Z,10.42
2018-12-05T09:03:50.537Z,10.53
2018-12-05T09:04:50.582Z,10.47
2018-12-05T09:05:50.569Z,10.25
2018-12-05T09:06:50.589Z,10.00
2018-12-05T09:07:50.599Z,9.78
2018-12-05T09:08:50.627Z,9.63
2018-12-05T09:09:50.635Z,9.67
2018-12-05T09:10:50.653Z,9.91
2018-12-05T09:11:50.668Z,9.83
2018-12-05T09:12:50.683Z,9.67
2018-12-05T09:13:50.694Z,9.60
2018-12-05T09:14:50.714Z,9.78
2018-12-05T09:15:50.803Z,10.14
2018-12-05T09:16:50.742Z,10.39
2018-12-05T09:17:50.760Z,10.59
2018-12-05T09:18:50.774Z,10.36
2018-12-05T09:19:50.786Z,10.24
2018-12-05T09:20:50.901Z,10.26
2018-12-05T09:21:50.836Z,10.51
2018-12-05T09:22:50.848Z,10.83
2018-12-05T09:23:50.872Z,10.84
2018-12-05T09:24:51.050Z,10.83
2018-12-05T09:25:50.923Z,10.83
2018-12-05T09:26:50.908Z,10.92
2018-12-05T09:27:50.926Z,11.09
2018-12-05T09:28:57.051Z,11.21
2018-12-05T09:29:50.963Z,11.35
2018-12-05T09:30:50.960Z,11.47
2018-12-05T09:31:50.975Z,11.43
2018-12-05T09:32:50.988Z,11.35
2018-12-05T09:33:51.023Z,10.77
2018-12-05T09:34:51.029Z,11.21
2018-12-05T09:35:51.037Z,11.24
2018-12-05T09:36:51.067Z,10.68
2018-12-05T09:37:51.070Z,10.91
2018-12-05T09:38:51.099Z,10.60
2018-12-05T09:39:51.110Z,10.80
2018-12-05T09:40:51.118Z,11.03
2018-12-05T09:41:51.141Z,11.13
2018-12-05T09:42:51.149Z,10.63
2018-12-05T09:43:51.240Z,10.99
2018-12-05T09:44:51.195Z,11.19
2018-12-05T09:45:51.305Z,11.24
2018-12-05T09:46:51.220Z,11.32
2018-12-05T09:47:51.231Z,11.31
2018-12-05T09:48:51.245Z,11.34
2018-12-05T09:49:51.275Z,11.41
2018-12-05T09:50:51.282Z,11.46
2018-12-05T09:51:51.294Z,11.46
2018-12-05T09:52:51.318Z,11.25
2018-12-05T09:53:51.333Z,10.91
2018-12-05T09:54:51.346Z,10.99
2018-12-05T09:55:51.360Z,10.65
2018-12-05T09:56:51.383Z,10.37
2018-12-05T09:57:51.394Z,11.02
2018-12-05T09:58:52.997Z,11.38
2018-12-05T09:59:51.436Z,11.53
2018-12-05T10:00:51.445Z,11.46
2018-12-05T10:01:51.474Z,11.78
2018-12-05T10:02:51.509Z,11.97
2018-12-05T10:03:51.508Z,12.02
2018-12-05T10:04:51.499Z,12.16
2018-12-05T10:05:51.519Z,12.09
2018-12-05T10:06:51.541Z,12.27
2018-12-05T10:07:51.563Z,12.48
2018-12-05T10:08:51.565Z,12.69
2018-12-05T10:09:51.588Z,12.70
2018-12-05T10:10:51.601Z,12.39
2018-12-05T10:11:51.631Z,12.01
2018-12-05T10:12:51.652Z,12.12
2018-12-05T10:13:51.779Z,12.16
2018-12-05T10:14:51.674Z,12.54
2018-12-05T10:15:51.687Z,12.15
2018-12-05T10:16:51.706Z,11.96
2018-12-05T10:17:51.751Z,11.90
2018-12-05T10:18:51.745Z,12.20
2018-12-05T10:19:51.757Z,12.51
2018-12-05T10:20:55.927Z,13.06
2018-12-05T10:21:51.795Z,13.27
2018-12-05T10:22:51.829Z,13.00
2018-12-05T10:23:51.865Z,12.85
2018-12-05T10:24:51.931Z,12.66
2018-12-05T10:25:51.882Z,12.41
2018-12-05T10:26:51.885Z,12.87
2018-12-05T10:27:51.943Z,12.59
2018-12-05T10:28:51.932Z,12.63
2018-12-05T10:29:51.953Z,12.85
2018-12-05T10:30:51.969Z,13.27
2018-12-05T10:31:51.984Z,13.47
2018-12-05T10:32:52.003Z,13.11
2018-12-05T10:33:52.017Z,13.30
2018-12-05T10:34:52.034Z,13.76
2018-12-05T10:35:52.061Z,13.74
2018-12-05T10:36:52.151Z,13.62
2018-12-05T10:37:52.098Z,13.58
2018-12-05T10:38:52.129Z,13.38
2018-12-05T10:39:52.135Z,12.69
2018-12-05T10:40:52.163Z,12.78
2018-12-05T10:41:52.245Z,12.42
2018-12-05T10:42:52.191Z,12.19
2018-12-05T10:43:52.206Z,12.23
2018-12-05T10:44:52.224Z,12.16
2018-12-05T10:45:52.239Z,12.23
2018-12-05T10:46:52.277Z,12.59
2018-12-05T10:47:52.285Z,12.81
2018-12-05T10:48:52.298Z,12.89
2018-12-05T10:49:52.321Z,12.66
2018-12-05T10:50:52.336Z,12.60
2018-12-05T10:51:52.363Z,12.78
2018-12-05T10:52:52.372Z,12.99
2018-12-05T10:53:52.389Z,12.99
2018-12-05T10:54:52.455Z,12.99
2018-12-05T10:55:52.419Z,13.06
2018-12-05T10:56:52.530Z,13.24
2018-12-05T10:57:52.463Z,13.43
2018-12-05T10:58:52.478Z,13.52
2018-12-05T10:59:52.491Z,13.59
2018-12-05T11:00:52.516Z,13.76
2018-12-05T11:01:52.531Z,14.06
2018-12-05T11:02:52.557Z,14.17
2018-12-05T11:03:52.576Z,14.32
2018-12-05T11:04:52.588Z,14.46
2018-12-05T11:05:52.612Z,14.43
2018-12-05T11:06:52.620Z,14.81
2018-12-05T11:07:52.647Z,14.80
2018-12-05T11:08:52.653Z,14.14
2018-12-05T11:09:52.685Z,14.34
2018-12-05T11:10:52.704Z,14.56
2018-12-05T11:11:52.724Z,14.78
2018-12-05T11:12:52.732Z,14.87
2018-12-05T11:13:52.761Z,15.27
2018-12-05T11:14:52.775Z,15.31
2018-12-05T11:15:52.795Z,15.46
2018-12-05T11:16:52.815Z,15.08
2018-12-05T11:17:52.828Z,14.75
2018-12-05T11:18:52.847Z,15.33
2018-12-05T11:19:52.867Z,15.67
2018-12-05T11:20:52.895Z,15.81
2018-12-05T11:21:52.911Z,15.93
2018-12-05T11:22:52.968Z,15.93
2018-12-05T11:23:52.950Z,15.49
2018-12-05T11:24:52.978Z,15.45
2018-12-05T11:25:53.000Z,15.23
2018-12-05T11:26:53.018Z,14.81
2018-12-05T11:27:53.035Z,14.34
2018-12-05T11:28:53.052Z,14.42
2018-12-05T11:29:53.081Z,14.74
2018-12-05T11:30:53.094Z,15.24
2018-12-05T11:31:53.122Z,15.19
2018-12-05T11:32:53.133Z,14.54
2018-12-05T11:33:53.215Z,14.39
2018-12-05T11:34:53.170Z,14.90
2018-12-05T11:35:53.197Z,14.68
2018-12-05T11:36:53.216Z,14.91
2018-12-05T11:38:53.257Z,14.90
2018-12-05T11:39:53.279Z,14.81
2018-12-05T11:40:53.292Z,14.60
2018-12-05T11:41:53.325Z,14.49
2018-12-05T11:42:53.350Z,14.44
2018-12-05T11:43:53.371Z,14.37
2018-12-05T11:44:53.389Z,13.81
2018-12-05T11:45:53.413Z,13.61
2018-12-05T11:46:53.419Z,13.51
2018-12-05T11:47:53.442Z,13.80
2018-12-05T11:48:53.460Z,14.14
2018-12-05T11:50:53.501Z,14.52
2018-12-05T11:51:53.513Z,14.46
2018-12-05T11:52:53.527Z,14.46
2018-12-05T11:53:53.566Z,14.24
2018-12-05T11:54:53.573Z,14.21
2018-12-05T11:55:53.594Z,14.53
2018-12-05T11:56:53.606Z,14.68
2018-12-05T11:57:53.734Z,14.80
2018-12-05T11:58:53.650Z,14.44
2018-12-05T11:59:53.657Z,14.52
2018-12-05T12:00:53.682Z,14.35
2018-12-05T12:01:53.746Z,14.14
2018-12-05T12:02:53.722Z,13.95
2018-12-05T12:03:53.744Z,13.76
2018-12-05T12:04:53.771Z,13.51
2018-12-05T12:05:53.780Z,13.37
2018-12-05T12:07:53.814Z,13.17
2018-12-05T12:08:53.829Z,13.09
2018-12-05T12:09:53.846Z,13.46
2018-12-05T12:10:53.871Z,13.76
2018-12-05T12:11:53.882Z,13.87
2018-12-05T12:12:53.906Z,13.81
2018-12-05T12:13:53.929Z,13.98
2018-12-05T12:14:53.992Z,13.65
2018-12-05T12:15:53.990Z,13.59
2018-12-05T12:16:53.978Z,13.44
2018-12-05T12:17:54.001Z,13.74
2018-12-05T12:18:54.024Z,13.96
2018-12-05T12:19:54.050Z,14.04
2018-12-05T12:20:54.058Z,13.84
2018-12-05T12:21:54.086Z,13.98
2018-12-05T12:23:54.106Z,13.96
2018-12-05T12:24:54.142Z,13.83
2018-12-05T12:25:54.244Z,13.87
2018-12-05T12:26:54.171Z,13.95
2018-12-05T12:27:54.180Z,13.81
2018-12-05T12:28:54.213Z,13.87
2018-12-05T12:29:54.235Z,13.70
2018-12-05T12:30:54.247Z,13.70
2018-12-05T12:31:54.256Z,13.88
2018-12-05T12:32:54.275Z,13.70
2018-12-05T12:33:54.302Z,13.83
2018-12-05T12:34:54.326Z,13.89
2018-12-05T12:35:54.348Z,13.76
2018-12-05T12:36:54.343Z,13.76
2018-12-05T12:37:54.370Z,13.80
2018-12-05T12:38:54.392Z,13.69
2018-12-05T12:39:54.418Z,13.76
2018-12-05T12:40:54.429Z,13.70
2018-12-05T12:41:54.438Z,13.71
2018-12-05T12:42:54.464Z,13.70
2018-12-05T12:43:54.471Z,13.76
2018-12-05T12:44:54.492Z,13.69
2018-12-05T12:45:54.507Z,13.65
2018-12-05T12:46:54.526Z,13.52
2018-12-05T12:47:54.545Z,13.51
2018-12-05T12:48:54.567Z,13.32
2018-12-05T12:49:54.573Z,13.37
2018-12-05T12:50:54.617Z,13.40
2018-12-05T12:51:54.614Z,13.46
2018-12-05T12:52:54.627Z,13.49
2018-12-05T12:53:54.741Z,13.46
2018-12-05T12:54:54.668Z,13.33
2018-12-05T12:55:54.677Z,13.37
2018-12-05T12:56:54.718Z,13.52
2018-12-05T12:57:54.722Z,13.56
2018-12-05T12:58:54.735Z,13.63
2018-12-05T12:59:54.750Z,13.58
2018-12-05T13:01:54.792Z,13.52
2018-12-05T13:02:54.812Z,13.51
2018-12-05T13:03:54.830Z,13.55
2018-12-05T13:04:54.865Z,13.56
2018-12-05T13:06:54.875Z,13.62
2018-12-05T13:07:54.912Z,13.67
2018-12-05T13:08:54.924Z,13.73
2018-12-05T13:09:54.928Z,13.55
2018-12-05T13:10:54.951Z,13.56
2018-12-05T13:11:54.977Z,13.56
2018-12-05T13:12:54.984Z,13.62
2018-12-05T13:13:55.002Z,13.54
2018-12-05T13:14:55.026Z,13.49
2018-12-05T13:15:55.029Z,13.40
2018-12-05T13:16:55.048Z,13.29
2018-12-05T13:17:55.067Z,12.93
2018-12-05T13:18:55.089Z,13.22
2018-12-05T13:19:55.103Z,13.41
2018-12-05T13:20:55.135Z,13.52
2018-12-05T13:21:55.208Z,13.59
2018-12-05T13:22:55.163Z,13.56
2018-12-05T13:23:55.176Z,13.59
2018-12-05T13:24:55.191Z,13.65
2018-12-05T13:25:55.211Z,13.63
2018-12-05T13:26:55.235Z,13.63
2018-12-05T13:27:55.247Z,13.63
2018-12-05T13:28:55.283Z,13.58
2018-12-05T13:29:55.280Z,13.49
2018-12-05T13:30:55.302Z,13.52